Time;durP1;ratioP1;P1;durP2;ratioP2;P2;SDS_P1;SDS_P2;PMS_P1;PMS_P2;Temp;Humidity;BMP_temperature;BMP_pressure;BME280_temperature;BME280_humidity;BME280_pressure;Samples;Min_cycle;Max_cycle;Signal;HPM_P1;HPM_P2
2024/03/17 00:00:10;;;;;;;;;;;;;;;16.95;63.04;101292.00;5102386;28;19920;-83
2024/03/17 00:02:57;;;;;;;;;;;;;;;17.00;62.80;101300.00;5110104;28;19916;-84
2024/03/17 00:05:49;;;;;;;;;;;;;;;16.76;63.16;101290.97;5107862;28;19916;-84
2024/03/17 00:08:41;;;;;;;;;;;;;;;16.75;63.15;101292.91;5108105;28;19916;-83
2024/03/17 00:11:30;;;;;;;;;;;;;;;16.74;63.25;101294.03;5123102;28;19915;-83
2024/03/17 00:14:22;;;;;;;;;;;;;;;16.74;62.90;101288.56;5120353;28;20389;-84
2024/03/17 00:17:14;;;;;;;;;;;;;;;16.90;62.46;101283.97;5119938;28;19915;-85
2024/03/17 00:20:08;;;;;;;;;;;;;;;16.89;62.22;101293.34;5107499;28;19920;-84
2024/03/17 00:23:00;;;;;;;;;;;;;;;16.79;62.56;101284.78;5107650;28;19916;-83
2024/03/17 00:25:52;;;;;;;;;;;;;;;16.75;62.14;101292.09;5118721;28;19920;-83
2024/03/17 00:28:42;;;;;;;;;;;;;;;16.81;61.88;101297.00;5107510;28;20315;-84
2024/03/17 00:31:33;;;;;;;;;;;;;;;16.72;61.61;101304.56;5107621;28;19915;-84
2024/03/17 00:34:25;;;;;;;;;;;;;;;16.66;61.60;101297.69;5104185;28;19915;-84
2024/03/17 00:37:17;;;;;;;;;;;;;;;16.56;61.85;101295.34;5107658;28;19919;-83
2024/03/17 00:40:09;;;;;;;;;;;;;;;16.67;61.41;101296.53;5121321;28;19920;-84
2024/03/17 00:43:00;;;;;;;;;;;;;;;16.63;61.62;101299.19;5107716;28;19916;-84
2024/03/17 00:45:53;;;;;;;;;;;;;;;16.50;62.11;101294.78;5107413;28;19920;-84
2024/03/17 00:48:45;;;;;;;;;;;;;;;16.51;61.80;101298.31;5122108;28;19916;-83
2024/03/17 00:51:37;;;;;;;;;;;;;;;16.32;62.21;101298.84;5103148;28;19924;-83
2024/03/17 00:54:29;;;;;;;;;;;;;;;16.34;62.09;101304.81;5118976;28;19919;-84
2024/03/17 00:57:18;;;;;;;;;;;;;;;16.22;61.90;101305.59;5121887;28;19915;-83
2024/03/17 01:00:13;;;;;;;;;;;;;;;16.30;61.79;101312.13;5099564;28;19920;-84
2024/03/17 01:03:05;;;;;;;;;;;;;;;16.34;61.82;101310.31;5103931;28;19916;-83
2024/03/17 01:05:57;;;;;;;;;;;;;;;16.44;61.96;101323.59;5116811;28;19920;-83
2024/03/17 01:08:49;;;;;;;;;;;;;;;16.49;61.48;101317.09;5107751;28;20380;-85
2024/03/17 01:11:38;;;;;;;;;;;;;;;16.46;61.57;101328.72;5120753;28;19916;-84
2024/03/17 01:14:31;;;;;;;;;;;;;;;16.38;61.80;101326.91;5103302;28;19916;-83
2024/03/17 01:17:23;;;;;;;;;;;;;;;16.35;62.07;101330.34;5106508;28;19923;-83
2024/03/17 01:20:15;;;;;;;;;;;;;;;16.33;62.04;101330.66;5105732;28;19983;-83
2024/03/17 01:23:07;;;;;;;;;;;;;;;16.38;62.33;101327.69;5114890;28;19919;-83
2024/03/17 01:25:59;;;;;;;;;;;;;;;16.39;63.03;101321.06;5102815;28;19916;-84
2024/03/17 01:28:51;;;;;;;;;;;;;;;16.39;63.21;101315.59;5121229;28;19915;-84
2024/03/17 01:31:43;;;;;;;;;;;;;;;16.34;63.37;101321.28;5119110;28;19916;-84
2024/03/17 01:34:35;;;;;;;;;;;;;;;16.34;63.48;101315.81;5103019;28;19916;-85
2024/03/17 01:37:24;;;;;;;;;;;;;;;16.34;63.70;101310.31;5105540;28;20308;-83
2024/03/17 01:40:16;;;;;;;;;;;;;;;16.29;64.10;101306.97;5105595;28;20312;-83
2024/03/17 01:43:05;;;;;;;;;;;;;;;16.09;64.40;101297.66;5105801;28;19916;-83
2024/03/17 01:45:58;;;;;;;;;;;;;;;15.89;64.96;101299.31;5106155;28;19920;-84
2024/03/17 01:48:47;;;;;;;;;;;;;;;15.83;65.18;101295.97;5105709;28;19920;-82
2024/03/17 01:51:40;;;;;;;;;;;;;;;15.80;64.92;101291.13;5101382;28;19920;-83
2024/03/17 01:54:29;;;;;;;;;;;;;;;15.72;64.81;101283.00;5102235;28;19916;-83
2024/03/17 01:57:16;;;;;;;;;;;;;;;15.61;65.10;101288.06;5105769;28;20296;-83
2024/03/17 02:00:08;;;;;;;;;;;;;;;15.70;64.65;101279.78;5099152;28;19920;-83
2024/03/17 02:02:57;;;;;;;;;;;;;;;15.69;64.35;101275.44;5105685;28;19919;-83
2024/03/17 02:05:47;;;;;;;;;;;;;;;15.66;64.02;101274.16;5116901;28;19916;-83
2024/03/17 02:08:57;;;;;;;;;;;;;;;15.66;63.96;101278.84;5099676;28;19916;-84
2024/03/17 02:11:49;;;;;;;;;;;;;;;15.62;63.60;101267.75;5105547;28;19915;-82
2024/03/17 02:14:40;;;;;;;;;;;;;;;15.67;63.38;101264.81;5101520;28;19916;-83
2024/03/17 02:17:30;;;;;;;;;;;;;;;15.63;63.45;101271.31;5103652;28;19916;-83
2024/03/17 02:20:22;;;;;;;;;;;;;;;15.83;63.39;101268.53;5100896;28;19920;-84
2024/03/17 02:23:17;;;;;;;;;;;;;;;15.72;63.49;101274.75;5114341;28;19928;-84
2024/03/17 02:26:09;;;;;;;;;;;;;;;15.77;62.88;101269.06;5116905;28;19915;-84
2024/03/17 02:29:01;;;;;;;;;;;;;;;15.72;62.82;101272.03;5115493;28;19920;-83
2024/03/17 02:31:52;;;;;;;;;;;;;;;15.65;62.94;101263.53;5104111;28;20300;-84
2024/03/17 02:34:44;;;;;;;;;;;;;;;15.53;63.05;101258.00;5100906;28;19916;-83
2024/03/17 02:37:36;;;;;;;;;;;;;;;15.45;63.20;101264.31;5119875;28;19919;-83
2024/03/17 02:40:28;;;;;;;;;;;;;;;15.35;63.37;101260.84;5118660;28;20312;-84
2024/03/17 02:43:20;;;;;;;;;;;;;;;15.35;63.26;101260.84;5105156;28;19916;-82
2024/03/17 02:46:12;;;;;;;;;;;;;;;15.40;62.98;101259.81;5105040;28;19916;-81
2024/03/17 02:49:05;;;;;;;;;;;;;;;15.32;62.68;101258.78;5119981;28;20559;-83
2024/03/17 02:51:56;;;;;;;;;;;;;;;15.32;62.45;101258.78;5115062;28;19916;-82
2024/03/17 02:54:48;;;;;;;;;;;;;;;15.25;62.53;101263.97;5115981;28;20299;-82
2024/03/17 02:57:40;;;;;;;;;;;;;;;15.20;62.47;101258.69;5105050;28;19916;-82
2024/03/17 03:00:29;;;;;;;;;;;;;;;15.19;62.28;101259.00;5104429;28;20296;-83
2024/03/17 03:03:21;;;;;;;;;;;;;;;15.16;61.92;101259.69;5118312;28;19916;-83
2024/03/17 03:06:12;;;;;;;;;;;;;;;15.21;61.93;101256.75;5104648;28;19916;-83
2024/03/17 03:09:04;;;;;;;;;;;;;;;15.19;61.46;101251.59;5118413;28;19916;-83
2024/03/17 03:11:54;;;;;;;;;;;;;;;15.26;61.52;101249.13;5106019;28;19915;-83
2024/03/17 03:14:44;;;;;;;;;;;;;;;15.20;61.33;101250.47;5104573;28;20322;-83
2024/03/17 03:17:36;;;;;;;;;;;;;;;15.26;61.23;101246.41;5108907;28;19915;-83
2024/03/17 03:20:28;;;;;;;;;;;;;;;15.26;60.70;101246.41;5105929;28;19938;-83
2024/03/17 03:23:20;;;;;;;;;;;;;;;15.09;61.02;101238.28;5104090;28;20380;-82
2024/03/17 03:26:12;;;;;;;;;;;;;;;15.08;61.27;101247.66;5124273;28;19920;-83
2024/03/17 03:29:04;;;;;;;;;;;;;;;15.11;61.19;101246.19;5108705;28;19916;-84
2024/03/17 03:31:57;;;;;;;;;;;;;;;15.26;60.90;101254.63;5123456;28;20365;-82
2024/03/17 03:34:49;;;;;;;;;;;;;;;15.30;60.79;101258.28;5119541;28;20380;-84
2024/03/17 03:37:38;;;;;;;;;;;;;;;15.26;60.67;101267.50;5104170;28;20288;-82
2024/03/17 03:40:32;;;;;;;;;;;;;;;14.94;61.24;101269.00;5123208;28;19919;-83
2024/03/17 03:43:24;;;;;;;;;;;;;;;15.20;61.22;101266.91;5120844;28;20373;-82
2024/03/17 03:46:15;;;;;;;;;;;;;;;15.22;60.55;101275.59;5108254;28;20376;-84
2024/03/17 03:49:06;;;;;;;;;;;;;;;15.31;60.70;101281.81;5122182;28;19916;-83
2024/03/17 03:51:58;;;;;;;;;;;;;;;15.18;60.93;101282.88;5103139;28;19919;-84
2024/03/17 03:54:46;;;;;;;;;;;;;;;15.02;61.19;101278.31;5104196;28;19916;-82
2024/03/17 03:57:37;;;;;;;;;;;;;;;14.95;61.41;101281.56;5108699;28;19919;-82
2024/03/17 04:00:31;;;;;;;;;;;;;;;14.89;61.51;101280.94;5103617;28;20312;-83
2024/03/17 04:03:24;;;;;;;;;;;;;;;14.93;61.28;101290.09;5108081;28;19915;-84
2024/03/17 04:06:16;;;;;;;;;;;;;;;14.93;61.50;101287.34;5121889;28;19916;-83
2024/03/17 04:09:09;;;;;;;;;;;;;;;14.75;62.03;101287.78;5107885;28;20384;-84
2024/03/17 04:11:58;;;;;;;;;;;;;;;14.63;62.09;101290.44;5122807;28;20388;-83
2024/03/17 04:14:52;;;;;;;;;;;;;;;14.47;63.14;101293.69;5117474;28;19915;-83
2024/03/17 04:17:41;;;;;;;;;;;;;;;14.43;63.33;101298.19;5108322;28;19915;-84
2024/03/17 04:20:33;;;;;;;;;;;;;;;14.48;63.18;101298.03;5088338;28;20377;-83
2024/03/17 04:23:23;;;;;;;;;;;;;;;14.55;63.24;101292.84;5101255;28;19916;-84
2024/03/17 04:26:15;;;;;;;;;;;;;;;14.45;63.61;101293.22;5087285;28;19912;-84
2024/03/17 04:29:04;;;;;;;;;;;;;;;14.50;63.56;101295.78;5099359;28;19916;-82
2024/03/17 04:31:56;;;;;;;;;;;;;;;14.53;63.42;101303.31;5087862;28;19916;-83
2024/03/17 04:34:48;;;;;;;;;;;;;;;14.46;63.70;101292.09;5079989;28;19920;-83
2024/03/17 04:37:40;;;;;;;;;;;;;;;14.30;63.44;101293.72;5098170;28;19920;-83
2024/03/17 04:40:31;;;;;;;;;;;;;;;14.28;63.97;101293.22;5096202;28;19916;-83
2024/03/17 04:43:23;;;;;;;;;;;;;;;14.37;63.45;101294.06;5085607;28;20385;-83
2024/03/17 04:46:15;;;;;;;;;;;;;;;14.38;63.20;101283.88;5096758;28;19920;-84
2024/03/17 04:49:07;;;;;;;;;;;;;;;14.42;63.15;101293.06;5086208;28;19920;-81
2024/03/17 04:51:59;;;;;;;;;;;;;;;14.32;62.98;101299.66;5110478;28;19916;-82
2024/03/17 04:54:51;;;;;;;;;;;;;;;14.30;63.25;101298.38;5102727;28;19920;-82
2024/03/17 04:57:43;;;;;;;;;;;;;;;14.23;62.90;101300.78;5086748;28;19916;-84
2024/03/17 05:00:36;;;;;;;;;;;;;;;14.26;62.60;101311.09;5096945;28;19920;-83
2024/03/17 05:03:25;;;;;;;;;;;;;;;14.31;63.13;101322.69;5086025;28;19919;-84
2024/03/17 05:06:15;;;;;;;;;;;;;;;14.33;63.09;101316.88;5114156;28;19920;-82
2024/03/17 05:09:06;;;;;;;;;;;;;;;14.24;63.10;101330.56;5099688;28;20284;-80
2024/03/17 05:11:58;;;;;;;;;;;;;;;14.21;63.38;101331.22;5100000;28;19916;-81
2024/03/17 05:14:50;;;;;;;;;;;;;;;14.26;63.19;101333.81;5081676;28;20297;-82
2024/03/17 05:17:42;;;;;;;;;;;;;;;14.25;62.90;101331.38;5100877;28;20369;-83
2024/03/17 05:20:34;;;;;;;;;;;;;;;14.21;62.94;101338.63;5084873;28;19915;-82
2024/03/17 05:23:24;;;;;;;;;;;;;;;14.14;63.15;101341.84;5096888;28;19916;-81
2024/03/17 05:26:16;;;;;;;;;;;;;;;14.17;63.21;101341.19;5094863;28;19916;-84
2024/03/17 05:29:08;;;;;;;;;;;;;;;14.30;62.78;101345.69;5099142;28;20300;-82
2024/03/17 05:32:00;;;;;;;;;;;;;;;14.20;63.07;101343.28;5100840;28;19916;-84
2024/03/17 05:34:52;;;;;;;;;;;;;;;14.16;62.64;101339.59;5095396;28;19920;-83
2024/03/17 05:37:44;;;;;;;;;;;;;;;14.25;62.40;101345.88;5085476;28;20389;-84
2024/03/17 05:40:41;;;;;;;;;;;;;;;14.18;62.50;101350.19;5075271;28;19916;-83
2024/03/17 05:43:33;;;;;;;;;;;;;;;14.24;62.49;101354.38;5105185;28;19915;-83
2024/03/17 05:46:24;;;;;;;;;;;;;;;14.15;62.65;101359.88;5097130;28;20372;-83
2024/03/17 05:49:16;;;;;;;;;;;;;;;14.20;62.79;101362.44;5105681;28;19915;-84
2024/03/17 05:52:09;;;;;;;;;;;;;;;14.29;62.76;101362.41;5089116;28;20370;-83
2024/03/17 05:55:01;;;;;;;;;;;;;;;14.21;62.73;101364.06;5060934;28;19916;-82
2024/03/17 05:57:52;;;;;;;;;;;;;;;14.32;62.53;101365.34;5065350;28;19920;-82
2024/03/17 06:00:45;;;;;;;;;;;;;;;14.22;62.67;101367.59;5064745;28;19916;-83
2024/03/17 06:03:35;;;;;;;;;;;;;;;14.20;62.74;101359.72;5060660;28;19925;-82
2024/03/17 06:06:27;;;;;;;;;;;;;;;14.14;63.07;101355.53;5058694;28;19920;-81
2024/03/17 06:09:19;;;;;;;;;;;;;;;14.06;63.10;101353.63;5081031;28;20396;-82
2024/03/17 06:12:11;;;;;;;;;;;;;;;14.15;62.74;101368.06;5094549;28;20296;-82
2024/03/17 06:15:00;;;;;;;;;;;;;;;14.16;63.10;101364.22;5093883;28;20385;-83
2024/03/17 06:17:56;;;;;;;;;;;;;;;14.14;62.96;101372.75;5084999;28;19915;-82
2024/03/17 06:20:46;;;;;;;;;;;;;;;14.10;63.21;101370.97;5084815;28;19916;-83
2024/03/17 06:23:36;;;;;;;;;;;;;;;14.09;63.66;101374.84;5083784;28;19916;-83
2024/03/17 06:26:27;;;;;;;;;;;;;;;14.06;63.80;101375.50;5098776;28;19919;-83
2024/03/17 06:29:19;;;;;;;;;;;;;;;14.07;63.82;101377.06;5083309;28;19916;-83
2024/03/17 06:32:09;;;;;;;;;;;;;;;14.17;64.02;101381.44;5099892;28;19916;-84
2024/03/17 06:35:07;;;;;;;;;;;;;;;14.29;63.94;101378.84;5080557;28;19935;-83
2024/03/17 06:37:56;;;;;;;;;;;;;;;14.43;63.40;101383.03;5098985;28;19916;-83
2024/03/17 06:40:57;;;;;;;;;;;;;;;14.51;63.39;101382.22;5094381;28;19916;-83
2024/03/17 06:43:49;;;;;;;;;;;;;;;14.50;63.55;101383.34;5097568;28;20304;-83
2024/03/17 06:46:39;;;;;;;;;;;;;;;14.53;63.72;101387.34;5092743;28;19916;-84
2024/03/17 06:49:31;;;;;;;;;;;;;;;14.60;63.61;101389.59;5115362;28;19915;-82
2024/03/17 06:52:23;;;;;;;;;;;;;;;14.55;63.71;101398.78;5092051;28;19920;-82
2024/03/17 06:55:15;;;;;;;;;;;;;;;14.56;63.83;101394.94;5084878;28;19916;-83
2024/03/17 06:57:59;;;;;;;;;;;;;;;14.51;64.28;101401.38;5099132;28;20404;-82
2024/03/17 07:00:52;;;;;;;;;;;;;;;14.54;64.48;101408.94;5094531;28;20380;-82
2024/03/17 07:03:43;;;;;;;;;;;;;;;14.57;64.63;101401.22;5089008;28;19916;-85
2024/03/17 07:06:33;;;;;;;;;;;;;;;14.74;64.78;101401.97;5098164;28;19916;-83
2024/03/17 07:09:25;;;;;;;;;;;;;;;14.66;65.10;101397.31;5079743;28;19924;-83
2024/03/17 07:12:12;;;;;;;;;;;;;;;14.70;65.36;101397.47;5097123;28;19916;-84
2024/03/17 07:15:04;;;;;;;;;;;;;;;14.77;65.27;101398.59;5092683;28;19920;-84
2024/03/17 07:17:54;;;;;;;;;;;;;;;14.89;65.24;101397.88;5077665;28;19917;-83
2024/03/17 07:20:46;;;;;;;;;;;;;;;15.01;65.75;101405.44;5073413;28;19920;-83
2024/03/17 07:23:38;;;;;;;;;;;;;;;15.00;66.25;101404.63;5077151;28;20297;-83
2024/03/17 07:26:30;;;;;;;;;;;;;;;15.08;66.14;101406.53;5078706;28;19920;-84
2024/03/17 07:29:23;;;;;;;;;;;;;;;15.17;65.70;101410.03;5077691;28;19920;-83
2024/03/17 07:32:15;;;;;;;;;;;;;;;15.24;65.90;101406.78;5075608;28;19920;-84
2024/03/17 07:35:07;;;;;;;;;;;;;;;15.33;65.80;101421.25;5073085;28;19920;-84
2024/03/17 07:37:57;;;;;;;;;;;;;;;15.44;65.72;101418.94;5071725;28;19917;-85
2024/03/17 07:40:57;;;;;;;;;;;;;;;15.51;65.52;101417.31;5074733;28;19916;-84
2024/03/17 07:43:49;;;;;;;;;;;;;;;15.62;65.53;101417.75;5058415;28;19916;-84
2024/03/17 07:46:36;;;;;;;;;;;;;;;15.76;65.42;101427.31;5063107;28;19916;-84
2024/03/17 07:49:28;;;;;;;;;;;;;;;15.76;65.42;101421.03;5063776;28;19920;-83
2024/03/17 07:52:17;;;;;;;;;;;;;;;15.73;65.44;101419.78;5057556;28;19916;-83
2024/03/17 07:55:09;;;;;;;;;;;;;;;15.81;65.16;101423.56;5058727;28;19916;-84
2024/03/17 07:58:01;;;;;;;;;;;;;;;15.85;64.31;101426.47;5060662;28;19916;-83
2024/03/17 08:00:53;;;;;;;;;;;;;;;15.96;63.60;101430.41;5071842;28;19916;-83
2024/03/17 08:03:46;;;;;;;;;;;;;;;16.05;63.19;101434.69;5105733;28;19915;-83
2024/03/17 08:06:37;;;;;;;;;;;;;;;16.11;62.64;101433.38;5110427;28;19915;-84
2024/03/17 08:09:26;;;;;;;;;;;;;;;16.14;62.50;101429.16;5105773;28;19916;-84
2024/03/17 08:12:13;;;;;;;;;;;;;;;16.19;62.06;101429.75;5122175;28;19919;-85
2024/03/17 08:15:05;;;;;;;;;;;;;;;16.23;62.38;101427.94;5087546;28;20380;-85
2024/03/17 08:17:57;;;;;;;;;;;;;;;16.33;62.40;101432.22;5096820;28;20375;-86
2024/03/17 08:20:46;;;;;;;;;;;;;;;16.35;62.39;101429.94;5098856;28;19916;-85
2024/03/17 08:23:41;;;;;;;;;;;;;;;16.40;62.27;101434.44;5091085;28;20305;-84
2024/03/17 08:26:33;;;;;;;;;;;;;;;16.47;62.36;101434.66;5081056;28;20405;-84
2024/03/17 08:29:22;;;;;;;;;;;;;;;16.52;62.60;101442.69;5108353;28;19923;-85
2024/03/17 08:32:14;;;;;;;;;;;;;;;16.54;62.44;101435.75;5090565;28;19916;-86
2024/03/17 08:35:06;;;;;;;;;;;;;;;16.67;61.81;101433.84;5075521;28;19916;-85
2024/03/17 08:37:58;;;;;;;;;;;;;;;16.70;62.16;101435.94;5094691;28;19919;-85
2024/03/17 08:40:50;;;;;;;;;;;;;;;16.66;62.07;101426.75;5068530;28;19916;-86
2024/03/17 08:43:42;;;;;;;;;;;;;;;16.73;62.19;101432.50;5073105;28;19924;-86
2024/03/17 08:46:32;;;;;;;;;;;;;;;16.67;62.74;101434.66;5097196;28;19916;-83
2024/03/17 08:49:24;;;;;;;;;;;;;;;16.76;62.38;101442.81;5099676;28;19916;-83
2024/03/17 08:52:16;;;;;;;;;;;;;;;16.83;61.74;101434.81;5080939;28;19916;-84
2024/03/17 08:55:09;;;;;;;;;;;;;;;16.83;61.82;101431.28;5096276;28;19950;-82
2024/03/17 08:58:01;;;;;;;;;;;;;;;16.78;61.69;101428.75;5096928;28;20312;-83
2024/03/17 09:00:49;;;;;;;;;;;;;;;16.91;61.50;101428.44;5104376;28;19920;-85
2024/03/17 09:03:39;;;;;;;;;;;;;;;16.98;61.14;101427.88;5108505;28;19920;-84
2024/03/17 09:06:32;;;;;;;;;;;;;;;17.03;60.96;101425.72;5086455;28;20381;-81
2024/03/17 09:09:24;;;;;;;;;;;;;;;17.03;61.03;101425.72;5085450;28;19920;-82
2024/03/17 09:12:16;;;;;;;;;;;;;;;17.09;61.16;101429.84;5098833;28;19916;-82
2024/03/17 09:15:08;;;;;;;;;;;;;;;17.18;60.88;101423.44;5082280;28;19920;-83
2024/03/17 09:18:05;;;;;;;;;;;;;;;17.20;60.96;101413.72;5100632;28;19916;-85
2024/03/17 09:21:05;;;;;;;;;;;;;;;17.28;60.27;101417.47;5084685;28;19924;-83
2024/03/17 09:23:55;;;;;;;;;;;;;;;17.39;60.35;101421.38;5086756;28;19924;-84
2024/03/17 09:26:47;;;;;;;;;;;;;;;17.46;59.93;101419.69;5101826;28;19916;-86
2024/03/17 09:29:34;;;;;;;;;;;;;;;17.58;59.38;101418.84;5094681;28;19915;-85
2024/03/17 09:32:24;;;;;;;;;;;;;;;17.64;59.36;101414.75;5102474;28;19916;-86
2024/03/17 09:35:13;;;;;;;;;;;;;;;17.87;58.50;101421.38;5084210;28;19916;-86
2024/03/17 09:38:03;;;;;;;;;;;;;;;17.79;58.42;101422.28;5105867;28;20289;-86
2024/03/17 09:40:57;;;;;;;;;;;;;;;17.88;58.49;101419.41;5086973;28;20339;-86
2024/03/17 09:43:49;;;;;;;;;;;;;;;18.00;58.10;101408.38;5096544;28;20393;-86
2024/03/17 09:46:41;;;;;;;;;;;;;;;18.07;58.11;101418.81;5074487;28;19916;-85
2024/03/17 09:49:28;;;;;;;;;;;;;;;18.14;58.03;101421.75;5089909;28;19916;-83
2024/03/17 09:52:25;;;;;;;;;;;;;;;18.30;58.08;101422.63;5090365;28;19916;-84
2024/03/17 09:55:17;;;;;;;;;;;;;;;18.65;56.81;101412.63;5082509;28;19916;-84
2024/03/17 09:58:12;;;;;;;;;;;;;;;18.75;55.39;101408.53;5084078;28;19920;-84
2024/03/17 10:01:03;;;;;;;;;;;;;;;18.82;55.24;101407.94;5098132;28;19920;-84
2024/03/17 10:03:58;;;;;;;;;;;;;;;18.79;56.05;101407.47;5065504;28;19924;-85
2024/03/17 10:06:47;;;;;;;;;;;;;;;18.78;55.34;101408.66;5072232;28;19916;-85
2024/03/17 10:09:38;;;;;;;;;;;;;;;18.97;55.42;101416.22;5080984;28;19920;-86
2024/03/17 10:12:33;;;;;;;;;;;;;;;19.09;54.14;101409.81;5086548;28;19916;-85
2024/03/17 10:15:25;;;;;;;;;;;;;;;19.08;53.32;101410.97;5083301;28;19916;-84
2024/03/17 10:18:24;;;;;;;;;;;;;;;19.16;53.27;101402.53;5097881;28;19916;-86
2024/03/17 10:21:32;;;;;;;;;;;;;;;19.30;54.03;101404.03;5081434;28;19916;-86
2024/03/17 10:24:28;;;;;;;;;;;;;;;19.41;53.96;101403.13;5106911;28;19916;-84
2024/03/17 10:27:12;;;;;;;;;;;;;;;19.48;52.83;101400.56;5118915;28;20388;-85
2024/03/17 10:30:04;;;;;;;;;;;;;;;19.51;52.38;101399.03;5086281;28;19916;-85
2024/03/17 10:32:56;;;;;;;;;;;;;;;19.56;52.16;101402.31;5102248;28;19916;-84
2024/03/17 10:35:43;;;;;;;;;;;;;;;19.67;52.38;101396.25;5079782;28;19916;-84
2024/03/17 10:38:35;;;;;;;;;;;;;;;19.75;52.13;101392.50;5110232;28;19916;-83
2024/03/17 10:41:25;;;;;;;;;;;;;;;19.76;51.46;101396.88;5100470;28;19916;-85
2024/03/17 10:44:17;;;;;;;;;;;;;;;19.86;51.65;101393.53;5081230;28;19916;-84
2024/03/17 10:47:12;;;;;;;;;;;;;;;19.83;52.67;101399.75;5111734;28;19920;-84
2024/03/17 10:50:03;;;;;;;;;;;;;;;19.90;51.37;101395.22;5084287;28;19916;-84
2024/03/17 10:52:57;;;;;;;;;;;;;;;20.06;51.45;101381.34;5091940;28;20392;-84
2024/03/17 10:55:50;;;;;;;;;;;;;;;20.03;51.09;101377.34;5089159;28;20297;-85
2024/03/17 10:58:49;;;;;;;;;;;;;;;20.15;50.81;101373.63;5089912;28;19916;-84
2024/03/17 11:01:41;;;;;;;;;;;;;;;20.22;50.77;101373.75;5094185;28;20385;-84
2024/03/17 11:04:33;;;;;;;;;;;;;;;20.29;50.89;101364.81;5097179;28;20380;-85
2024/03/17 11:07:31;;;;;;;;;;;;;;;20.28;49.86;101366.78;5096795;28;19916;-82
2024/03/17 11:10:22;;;;;;;;;;;;;;;20.37;49.92;101361.84;5090343;28;19924;-84
2024/03/17 11:13:24;;;;;;;;;;;;;;;20.42;49.67;101356.03;5095442;28;19920;-84
2024/03/17 11:16:28;;;;;;;;;;;;;;;20.47;50.04;101352.16;5082889;28;19920;-85
2024/03/17 11:19:20;;;;;;;;;;;;;;;20.63;49.69;101350.09;5093731;28;19916;-85
2024/03/17 11:22:28;;;;;;;;;;;;;;;20.66;49.66;101346.63;5099935;28;19928;-85
2024/03/17 11:25:36;;;;;;;;;;;;;;;20.58;48.73;101346.84;5093423;28;19916;-85
2024/03/17 11:28:43;;;;;;;;;;;;;;;20.59;48.41;101351.22;5078639;28;20301;-83
2024/03/17 11:31:39;;;;;;;;;;;;;;;20.59;48.40;101345.69;5096789;28;19916;-84
2024/03/17 11:34:42;;;;;;;;;;;;;;;20.67;48.19;101342.66;5102211;28;19916;-84
2024/03/17 11:37:52;;;;;;;;;;;;;;;20.64;47.47;101342.59;5089204;28;19945;-84
2024/03/17 11:40:44;;;;;;;;;;;;;;;20.79;47.47;101345.25;5079788;28;19920;-83
2024/03/17 11:43:34;;;;;;;;;;;;;;;20.85;47.88;101340.22;5072107;28;19920;-83
2024/03/17 11:46:24;;;;;;;;;;;;;;;20.66;47.51;101329.22;5096006;28;19919;-85
2024/03/17 11:49:31;;;;;;;;;;;;;;;20.64;47.74;101320.50;5101244;28;19916;-85
2024/03/17 11:52:23;;;;;;;;;;;;;;;20.70;48.12;101319.84;5118663;28;19916;-85
2024/03/17 11:55:15;;;;;;;;;;;;;;;20.67;47.87;101323.31;5100921;28;19924;-85
2024/03/17 11:58:07;;;;;;;;;;;;;;;20.68;47.30;101316.63;5104625;28;19919;-84
2024/03/17 12:00:59;;;;;;;;;;;;;;;20.66;48.10;101313.44;5105032;28;19920;-83
2024/03/17 12:03:49;;;;;;;;;;;;;;;20.73;48.34;101305.25;5099688;28;19920;-85
2024/03/17 12:06:41;;;;;;;;;;;;;;;20.68;47.54;101299.25;5084034;28;20292;-85
2024/03/17 12:09:31;;;;;;;;;;;;;;;20.51;47.68;101300.56;5089711;28;19915;-86
2024/03/17 12:12:39;;;;;;;;;;;;;;;20.59;47.43;101298.69;5112679;28;19916;-83
2024/03/17 12:15:31;;;;;;;;;;;;;;;20.56;47.31;101297.47;5110274;28;19924;-84
2024/03/17 12:18:23;;;;;;;;;;;;;;;20.44;47.61;101281.06;5090116;28;20396;-84
2024/03/17 12:21:15;;;;;;;;;;;;;;;20.41;47.44;101284.59;5095005;28;19916;-83
2024/03/17 12:24:11;;;;;;;;;;;;;;;20.53;47.46;101283.59;5121838;28;20320;-85
2024/03/17 12:27:02;;;;;;;;;;;;;;;20.55;46.75;101282.06;5083727;28;19920;-83
2024/03/17 12:29:58;;;;;;;;;;;;;;;20.63;46.82;101277.44;5094554;28;19915;-83
2024/03/17 12:32:50;;;;;;;;;;;;;;;20.62;46.96;101268.34;5098179;28;19916;-85
2024/03/17 12:35:41;;;;;;;;;;;;;;;20.72;47.30;101269.72;5078923;28;19924;-85
2024/03/17 12:38:33;;;;;;;;;;;;;;;20.79;47.25;101269.81;5088271;28;19916;-84
2024/03/17 12:41:25;;;;;;;;;;;;;;;20.89;47.24;101267.22;5089668;28;19916;-85
2024/03/17 12:44:24;;;;;;;;;;;;;;;20.91;45.88;101266.84;5075995;28;19920;-84
2024/03/17 12:47:17;;;;;;;;;;;;;;;20.94;45.15;101260.56;5088800;28;20456;-84
2024/03/17 12:50:13;;;;;;;;;;;;;;;20.92;44.06;101254.63;5091289;28;19920;-82
2024/03/17 12:53:03;;;;;;;;;;;;;;;20.90;44.64;101248.66;5094450;28;19916;-84
2024/03/17 13:02:13;;;;;;;;;;;;;;;21.11;45.30;101232.38;5103515;28;19920;-83
2024/03/17 13:05:10;;;;;;;;;;;;;;;21.07;44.33;101231.53;5081007;28;19917;-85
2024/03/17 13:08:00;;;;;;;;;;;;;;;21.19;45.04;101234.09;5099295;28;19916;-84
2024/03/17 13:10:55;;;;;;;;;;;;;;;21.14;44.46;101231.66;5095993;28;19916;-86
2024/03/17 13:13:47;;;;;;;;;;;;;;;21.29;45.56;101213.28;5100142;28;19916;-83
2024/03/17 13:16:38;;;;;;;;;;;;;;;21.24;45.28;101217.19;5101781;28;20389;-85
2024/03/17 13:19:25;;;;;;;;;;;;;;;21.33;45.41;101214.91;5094295;28;19920;-86
2024/03/17 13:22:15;;;;;;;;;;;;;;;21.18;44.15;101215.13;5078394;28;19920;-86
2024/03/17 13:25:07;;;;;;;;;;;;;;;21.05;43.95;101208.19;5084804;28;20377;-86
2024/03/17 13:27:58;;;;;;;;;;;;;;;21.05;43.03;101210.94;5075560;28;19920;-82
2024/03/17 13:30:48;;;;;;;;;;;;;;;21.07;43.37;101192.81;5066326;28;19916;-83
2024/03/17 13:33:40;;;;;;;;;;;;;;;21.07;43.87;101192.81;5067888;28;19917;-82
2024/03/17 13:36:32;;;;;;;;;;;;;;;21.20;43.91;101190.63;5084877;28;19916;-84
2024/03/17 13:39:22;;;;;;;;;;;;;;;21.15;44.78;101188.19;5100572;28;19915;-83
2024/03/17 13:42:09;;;;;;;;;;;;;;;21.18;45.61;101188.25;5068169;28;19920;-83
2024/03/17 13:45:01;;;;;;;;;;;;;;;21.12;45.69;101186.97;5115489;28;19916;-83
2024/03/17 13:48:07;;;;;;;;;;;;;;;20.96;44.44;101180.81;5099722;28;19916;-84
2024/03/17 13:50:58;;;;;;;;;;;;;;;20.91;44.34;101181.94;5098268;28;19915;-83
2024/03/17 13:53:50;;;;;;;;;;;;;;;20.84;44.44;101194.84;5086644;28;19916;-84
2024/03/17 13:56:40;;;;;;;;;;;;;;;20.84;44.33;101192.09;5085457;28;19915;-82
2024/03/17 13:59:32;;;;;;;;;;;;;;;20.85;44.89;101186.19;5099491;28;19916;-84
2024/03/17 14:02:21;;;;;;;;;;;;;;;20.75;45.34;101186.84;5088113;28;19919;-84
2024/03/17 14:05:14;;;;;;;;;;;;;;;20.83;45.74;101185.75;5095665;28;19916;-85
2024/03/17 14:08:11;;;;;;;;;;;;;;;20.80;45.78;101185.72;5093346;28;19916;-84
2024/03/17 14:11:03;;;;;;;;;;;;;;;20.69;46.47;101185.56;5074524;28;19916;-83
2024/03/17 14:13:53;;;;;;;;;;;;;;;20.63;46.21;101184.28;5073768;28;19916;-85
2024/03/17 14:16:40;;;;;;;;;;;;;;;20.64;45.31;101185.06;5095836;28;19916;-84
2024/03/17 14:19:32;;;;;;;;;;;;;;;20.56;45.78;101186.16;5086157;28;19916;-84
2024/03/17 14:22:22;;;;;;;;;;;;;;;20.53;45.33;101184.09;5082928;28;19924;-82
2024/03/17 14:25:15;;;;;;;;;;;;;;;20.54;45.08;101182.94;5079086;28;19916;-82
2024/03/17 14:28:07;;;;;;;;;;;;;;;20.56;45.38;101178.66;5089150;28;20389;-82
2024/03/17 14:30:59;;;;;;;;;;;;;;;20.49;45.72;101168.28;5111322;28;19915;-83
2024/03/17 14:33:51;;;;;;;;;;;;;;;20.48;46.39;101161.16;5101977;28;20402;-82
2024/03/17 14:36:41;;;;;;;;;;;;;;;20.47;46.71;101170.59;5109979;28;19916;-86
2024/03/17 14:39:33;;;;;;;;;;;;;;;20.35;46.51;101176.34;5084098;28;19916;-83
2024/03/17 14:42:25;;;;;;;;;;;;;;;20.42;46.34;101172.88;5105002;28;19919;-83
2024/03/17 14:45:15;;;;;;;;;;;;;;;20.40;46.77;101173.28;5082428;28;19915;-84
2024/03/17 14:48:04;;;;;;;;;;;;;;;20.34;46.58;101169.22;5065202;28;19916;-82